RVR & METAR

Na tym forum pomagamy wszystkim chętnym w stawianiu pierwszych kroków na VATSIM. Ale UWAGA - pilotażu i nawigacji uczy Szkoła Pilotów poniżej.

Moderatorzy: Aaben, Arteq, mbx

RVR & METAR

Postprzez lukii84 » Pt 10 gru 2010, 23:08

2010/12/10 20:30 EPWA 102030Z 29010KT 260V320 9999 FEW018 M04/M06 Q1016 R33/51//79 NOSIG


jak czytac R33/51//79 ???
Avatar użytkownika
lukii84
Steward
Steward
 
Posty: 174
Dołączył(a): Pt 06 lip 2007, 23:45
Lokalizacja: EPPO

Re: RVR & METAR

Postprzez Arteq » Pt 10 gru 2010, 23:09

To nie jest RVR
"Rating jak i wstyd pozostaje dożywotnio" by Bobru
"Co nie zmienia faktu..." by Bobru
"....Panowie" - by RDB
Avatar użytkownika
Arteq
Kapitan
Kapitan
 
Posty: 3919
Dołączył(a): Wt 28 lis 2006, 13:08
Lokalizacja: EPBA
Imię i Nazwisko: Artur
Vatsim PID: 980067

Re: RVR & METAR

Postprzez Gruszek » Pt 10 gru 2010, 23:15

Gruszek
Kontroler PLVACC [inactive]
 
Posty: 243
Dołączył(a): Pn 22 lis 2004, 15:25
Lokalizacja: Głogów
Imię i Nazwisko: Piotrek Gruszka
Vatsim PID: 0

Re: RVR & METAR

Postprzez Pogodny RzEmYk » Pt 10 gru 2010, 23:17

Ziew...
Blaszak: MSI Z87-G43, 4670K, 4x4GB dual, GTX1080, W7 64b, P3D v4.5
Avatar użytkownika
Pogodny RzEmYk
Kontroler PLVACC
 
Posty: 9642
Dołączył(a): Śr 18 lut 2004, 15:35
Lokalizacja: okolice Dąbrowy Tarnowskiej
Imię i Nazwisko: Krzysztof
Vatsim PID: 895621


Powrót do Forum nowych użytkowników

Kto przegląda forum

Użytkownicy przeglądający ten dział: Brak zidentyfikowanych użytkowników i 1 gość

cron